createdAt,value
2023-03-02T00:01:39.683Z,98550.88
2023-03-02T00:04:09.903Z,98548.91
2023-03-02T00:06:37.694Z,98544.47
2023-03-02T00:09:06.308Z,98543.91
2023-03-02T00:11:35.900Z,98538.03
2023-03-02T00:14:03.028Z,98538.34
2023-03-02T00:16:30.650Z,98532.47
2023-03-02T00:18:58.081Z,98533.06
2023-03-02T00:21:25.244Z,98530.53
2023-03-02T00:23:52.957Z,98523.94
2023-03-02T00:26:20.175Z,98533.03
2023-03-02T00:28:47.827Z,98520.66
2023-03-02T00:31:15.398Z,98517.13
2023-03-02T00:33:42.746Z,98513.53
2023-03-02T00:36:21.421Z,98516.91
2023-03-02T00:38:49.040Z,98506.00
2023-03-02T00:41:16.969Z,98501.41
2023-03-02T00:43:44.282Z,98502.66
2023-03-02T00:46:20.135Z,98500.19
2023-03-02T00:48:47.423Z,98500.06
2023-03-02T00:51:15.234Z,98504.25
2023-03-02T00:53:42.940Z,98511.38
2023-03-02T00:56:10.923Z,98503.84
2023-03-02T00:58:42.342Z,98507.94
2023-03-02T01:01:13.770Z,98496.88
2023-03-02T01:03:47.410Z,98491.03
2023-03-02T01:06:18.713Z,98489.22
2023-03-02T01:08:46.273Z,98485.50
2023-03-02T01:11:15.456Z,98484.03
2023-03-02T01:13:42.666Z,98482.91
2023-03-02T01:16:09.916Z,98493.44
2023-03-02T01:18:38.946Z,98489.69
2023-03-02T01:21:10.861Z,98491.22
2023-03-02T01:23:37.976Z,98490.53
2023-03-02T01:26:05.166Z,98480.00
2023-03-02T01:28:32.792Z,98474.53
2023-03-02T01:31:02.769Z,98471.13
2023-03-02T01:33:31.121Z,98476.97
2023-03-02T01:35:58.430Z,98476.81
2023-03-02T01:38:25.797Z,98477.66
2023-03-02T01:40:52.985Z,98481.31
2023-03-02T01:43:20.114Z,98479.88
2023-03-02T01:46:05.301Z,98482.72
2023-03-02T01:48:55.077Z,98484.97
2023-03-02T01:51:44.014Z,98480.31
2023-03-02T01:54:23.200Z,98483.47
2023-03-02T01:56:59.516Z,98477.09
2023-03-02T01:59:30.820Z,98478.09
2023-03-02T02:02:01.797Z,98481.91
2023-03-02T02:04:31.646Z,98476.50
2023-03-02T02:07:03.567Z,98479.59
2023-03-02T02:09:34.837Z,98476.19
2023-03-02T02:12:02.615Z,98474.41
2023-03-02T02:14:29.858Z,98474.50
2023-03-02T02:16:57.057Z,98471.16
2023-03-02T02:19:53.026Z,98472.19
2023-03-02T02:22:37.104Z,98475.84
2023-03-02T02:25:18.820Z,98475.28
2023-03-02T02:27:47.118Z,98473.13
2023-03-02T02:30:16.750Z,98481.81
2023-03-02T02:32:46.952Z,98479.13
2023-03-02T02:35:20.294Z,98479.72
2023-03-02T02:37:52.888Z,98484.81
2023-03-02T02:40:38.402Z,98486.34
2023-03-02T02:43:07.716Z,98483.47
2023-03-02T02:45:36.496Z,98480.13
2023-03-02T02:48:03.846Z,98481.63
2023-03-02T02:50:34.158Z,98484.72
2023-03-02T02:53:07.300Z,98487.19
2023-03-02T02:55:35.943Z,98479.47
2023-03-02T02:58:14.040Z,98474.78
2023-03-02T03:00:41.276Z,98474.28
2023-03-02T03:03:31.908Z,98481.16
2023-03-02T03:06:04.795Z,98479.31
2023-03-02T03:08:43.946Z,98491.25
2023-03-02T03:11:23.575Z,98483.31
2023-03-02T03:14:08.767Z,98472.44
2023-03-02T03:16:38.639Z,98478.31
2023-03-02T03:19:12.459Z,98481.31
2023-03-02T03:21:39.789Z,98486.16
2023-03-02T03:24:07.395Z,98486.34
2023-03-02T03:26:35.209Z,98488.50
2023-03-02T03:29:04.325Z,98484.31
2023-03-02T03:31:31.748Z,98484.13
2023-03-02T03:34:00.867Z,98493.59
2023-03-02T03:36:33.125Z,98493.34
2023-03-02T03:39:01.386Z,98497.78
2023-03-02T03:41:29.730Z,98497.19
2023-03-02T03:43:57.598Z,98501.69
2023-03-02T03:46:25.994Z,98504.97
2023-03-02T03:48:53.179Z,98502.06
2023-03-02T03:51:20.483Z,98496.53
2023-03-02T03:53:59.752Z,98496.88
2023-03-02T03:56:34.054Z,98507.41
2023-03-02T03:59:08.634Z,98512.00
2023-03-02T04:01:46.494Z,98519.44
2023-03-02T04:04:21.864Z,98521.53
2023-03-02T04:06:49.937Z,98518.94
2023-03-02T04:09:20.201Z,98524.41
2023-03-02T04:11:50.894Z,98517.94
2023-03-02T04:14:19.968Z,98518.09
2023-03-02T04:16:47.101Z,98520.53
2023-03-02T04:19:14.979Z,98514.41
2023-03-02T04:21:45.631Z,98517.28
2023-03-02T04:24:14.682Z,98507.72
2023-03-02T04:26:43.272Z,98514.81
2023-03-02T04:29:12.100Z,98512.06
2023-03-02T04:31:40.682Z,98510.75
2023-03-02T04:34:08.682Z,98518.28
2023-03-02T04:36:39.672Z,98511.34
2023-03-02T04:39:12.813Z,98517.00
2023-03-02T04:41:41.174Z,98524.03
2023-03-02T04:44:08.296Z,98524.97
2023-03-02T04:46:35.779Z,98527.88
2023-03-02T04:49:04.459Z,98531.81
2023-03-02T04:51:35.421Z,98537.28
2023-03-02T04:54:06.449Z,98533.47
2023-03-02T04:56:34.442Z,98527.59
2023-03-02T04:59:01.854Z,98530.47
2023-03-02T05:01:29.029Z,98528.63
2023-03-02T05:03:56.672Z,98535.59
2023-03-02T05:06:25.284Z,98540.63
2023-03-02T05:08:53.784Z,98539.78
2023-03-02T05:11:30.012Z,98534.19
2023-03-02T05:14:03.060Z,98535.25
2023-03-02T05:16:32.756Z,98540.34
2023-03-02T05:19:01.356Z,98535.75
2023-03-02T05:21:28.766Z,98542.88
2023-03-02T05:23:56.128Z,98545.88
2023-03-02T05:26:23.762Z,98547.88
2023-03-02T05:28:53.011Z,98541.59
2023-03-02T05:31:30.252Z,98549.28
2023-03-02T05:33:58.197Z,98544.16
2023-03-02T05:36:25.313Z,98549.56
2023-03-02T05:38:52.406Z,98544.88
2023-03-02T05:41:19.570Z,98545.16
2023-03-02T05:43:46.773Z,98543.75
2023-03-02T05:46:14.124Z,98538.75
2023-03-02T05:48:42.404Z,98547.25
2023-03-02T05:51:09.808Z,98553.03
2023-03-02T05:53:36.970Z,98548.25
2023-03-02T05:56:04.387Z,98550.72
2023-03-02T05:58:31.661Z,98559.25
2023-03-02T06:00:59.189Z,98571.34
2023-03-02T06:03:26.430Z,98565.94
2023-03-02T06:05:53.608Z,98574.19
2023-03-02T06:08:22.009Z,98569.31
2023-03-02T06:10:50.978Z,98573.66
2023-03-02T06:13:18.421Z,98577.00
2023-03-02T06:15:45.769Z,98576.09
2023-03-02T06:18:13.868Z,98574.78
2023-03-02T06:20:42.121Z,98576.53
2023-03-02T06:23:09.232Z,98570.34
2023-03-02T06:25:38.863Z,98577.38
2023-03-02T06:28:05.939Z,98562.56
2023-03-02T06:30:33.042Z,98579.13
2023-03-02T06:33:00.404Z,98574.88
2023-03-02T06:35:27.663Z,98583.59
2023-03-02T06:37:54.797Z,98578.75
2023-03-02T06:40:21.891Z,98580.56
2023-03-02T06:42:49.181Z,98581.00
2023-03-02T06:45:16.420Z,98594.97
2023-03-02T06:47:43.492Z,98592.47
2023-03-02T06:50:11.436Z,98588.81
2023-03-02T06:52:38.711Z,98590.00
2023-03-02T06:55:06.639Z,98589.91
2023-03-02T06:57:34.343Z,98591.59
2023-03-02T07:00:09.657Z,98592.41
2023-03-02T07:02:37.357Z,98590.00
2023-03-02T07:05:05.436Z,98591.50
2023-03-02T07:07:32.621Z,98582.47
2023-03-02T07:09:59.723Z,98589.50
2023-03-02T07:12:27.170Z,98591.09
2023-03-02T07:14:54.293Z,98591.66
2023-03-02T07:17:21.370Z,98590.25
2023-03-02T07:19:48.439Z,98592.34
2023-03-02T07:22:15.651Z,98590.09
2023-03-02T07:24:44.899Z,98592.41
2023-03-02T07:27:12.680Z,98585.72
2023-03-02T07:29:39.740Z,98586.50
2023-03-02T07:32:07.050Z,98586.66
2023-03-02T07:34:34.297Z,98581.47
2023-03-02T07:37:01.380Z,98585.41
2023-03-02T07:39:28.516Z,98584.16
2023-03-02T07:42:03.193Z,98581.03
2023-03-02T07:44:31.277Z,98586.41
2023-03-02T07:46:58.876Z,98585.56
2023-03-02T07:49:26.341Z,98588.84
2023-03-02T07:51:53.428Z,98595.28
2023-03-02T07:54:20.810Z,98589.34
2023-03-02T07:56:48.274Z,98590.88
2023-03-02T07:59:15.341Z,98592.97
2023-03-02T08:01:42.538Z,98590.16
2023-03-02T08:04:09.753Z,98600.19
2023-03-02T08:06:36.964Z,98589.69
2023-03-02T08:09:05.283Z,98590.88
2023-03-02T08:11:32.999Z,98583.81
2023-03-02T08:14:01.652Z,98590.34
2023-03-02T08:16:30.080Z,98600.94
2023-03-02T08:18:59.769Z,98590.66
2023-03-02T08:21:28.652Z,98593.84
2023-03-02T08:23:55.843Z,98597.09
2023-03-02T08:26:23.036Z,98600.25
2023-03-02T08:28:50.266Z,98602.19
2023-03-02T08:31:17.414Z,98607.13
2023-03-02T08:33:46.105Z,98600.66
2023-03-02T08:36:16.589Z,98601.81
2023-03-02T08:38:43.935Z,98608.19
2023-03-02T08:41:13.949Z,98607.63
2023-03-02T08:43:41.416Z,98605.94
2023-03-02T08:46:09.039Z,98607.00
2023-03-02T08:48:36.166Z,98597.22
2023-03-02T08:51:07.150Z,98595.97
2023-03-02T08:53:38.074Z,98601.44
2023-03-02T08:56:07.602Z,98609.81
2023-03-02T08:58:34.741Z,98605.91
2023-03-02T09:01:01.854Z,98600.72
2023-03-02T09:03:29.042Z,98594.00
2023-03-02T09:05:56.173Z,98608.16
2023-03-02T09:08:23.291Z,98605.25
2023-03-02T09:10:50.319Z,98603.72
2023-03-02T09:13:17.392Z,98599.34
2023-03-02T09:15:45.483Z,98591.09
2023-03-02T09:18:12.609Z,98595.56
2023-03-02T09:20:39.838Z,98586.91
2023-03-02T09:23:07.127Z,98590.16
2023-03-02T09:25:34.206Z,98586.53
2023-03-02T09:28:01.351Z,98591.00
2023-03-02T09:30:28.802Z,98577.09
2023-03-02T09:32:56.062Z,98579.38
2023-03-02T09:35:23.218Z,98577.13
2023-03-02T09:37:50.309Z,98579.56
2023-03-02T09:40:24.468Z,98575.94
2023-03-02T09:43:22.780Z,98563.16
2023-03-02T10:17:53.042Z,98543.34
2023-03-02T10:20:34.928Z,98539.44
2023-03-02T10:23:26.525Z,98538.97
2023-03-02T10:26:01.268Z,98533.38
2023-03-02T10:28:38.606Z,98537.38
2023-03-02T10:31:24.597Z,98536.22
2023-03-02T10:33:51.826Z,98533.69
2023-03-02T10:36:27.066Z,98537.25
2023-03-02T10:38:56.166Z,98530.16
2023-03-02T10:41:52.216Z,98540.97
2023-03-02T10:44:45.611Z,98527.44
2023-03-02T10:47:41.880Z,98529.81
2023-03-02T10:50:22.127Z,98527.19
2023-03-02T10:52:59.459Z,98517.69
2023-03-02T10:55:28.012Z,98524.25
2023-03-02T10:58:18.055Z,98519.28
2023-03-02T11:00:56.494Z,98513.69
2023-03-02T11:03:24.261Z,98518.00
2023-03-02T11:05:51.766Z,98509.59
2023-03-02T11:08:20.509Z,98509.13
2023-03-02T11:11:01.922Z,98496.41
2023-03-02T11:13:32.816Z,98494.47
2023-03-02T11:16:19.578Z,98495.38
2023-03-02T11:18:52.488Z,98492.38
2023-03-02T11:21:42.184Z,98491.16
2023-03-02T11:24:30.440Z,98486.69
2023-03-02T11:27:02.346Z,98492.59
2023-03-02T11:29:44.598Z,98488.09
2023-03-02T11:32:18.009Z,98488.16
2023-03-02T11:34:50.470Z,98487.66
2023-03-02T11:37:21.908Z,98487.69
2023-03-02T11:39:56.274Z,98491.19
2023-03-02T11:42:33.732Z,98485.63
2023-03-02T11:45:22.785Z,98492.25
2023-03-02T11:48:12.975Z,98487.09
2023-03-02T11:51:02.980Z,98483.78
2023-03-02T11:53:58.601Z,98482.91
2023-03-02T11:56:26.914Z,98478.91
2023-03-02T11:59:03.098Z,98480.22
2023-03-02T12:01:31.715Z,98477.38
2023-03-02T12:04:35.556Z,98477.47
2023-03-02T12:07:17.877Z,98472.16
2023-03-02T12:09:44.952Z,98461.72
2023-03-02T12:12:42.954Z,98477.78
2023-03-02T12:15:51.045Z,98465.59
2023-03-02T12:21:06.537Z,98473.22
2023-03-02T12:23:41.056Z,98467.50
2023-03-02T12:26:26.164Z,98466.13
2023-03-02T12:29:04.041Z,98459.03
2023-03-02T12:31:50.755Z,98464.34
2023-03-02T12:34:51.902Z,98475.88
2023-03-02T12:37:26.424Z,98473.34
2023-03-02T12:40:29.015Z,98470.63
2023-03-02T12:43:20.190Z,98471.34
2023-03-02T12:46:16.404Z,98471.91
2023-03-02T12:48:58.611Z,98473.44
2023-03-02T12:51:29.830Z,98477.50
2023-03-02T12:54:07.496Z,98479.53
2023-03-02T12:56:34.984Z,98475.59
2023-03-02T12:59:02.350Z,98476.78
2023-03-02T13:01:34.568Z,98464.63
2023-03-02T13:04:01.816Z,98469.25
2023-03-02T13:06:32.064Z,98473.03
2023-03-02T13:09:00.621Z,98475.09
2023-03-02T13:11:32.418Z,98467.53
2023-03-02T13:14:03.842Z,98471.03
2023-03-02T13:16:33.972Z,98471.72
2023-03-02T13:19:09.260Z,98466.91
2023-03-02T13:21:38.816Z,98467.72
2023-03-02T13:24:34.568Z,98465.16
2023-03-02T13:27:07.422Z,98463.19
2023-03-02T13:29:34.581Z,98462.53
2023-03-02T13:32:22.166Z,98463.13
2023-03-02T13:34:55.562Z,98458.16
2023-03-02T13:37:43.927Z,98448.75
2023-03-02T13:40:23.426Z,98436.56
2023-03-02T13:42:51.480Z,98434.69
2023-03-02T13:45:27.766Z,98441.19
2023-03-02T13:47:56.993Z,98429.63
2023-03-02T13:50:25.712Z,98417.91
2023-03-02T13:52:56.150Z,98417.25
2023-03-02T13:55:24.295Z,98418.09
2023-03-02T13:57:54.698Z,98418.22
2023-03-02T14:00:29.223Z,98417.78
2023-03-02T14:02:56.369Z,98404.94
2023-03-02T14:05:27.110Z,98401.34
2023-03-02T14:07:54.317Z,98397.91
2023-03-02T14:10:22.064Z,98391.63
2023-03-02T14:13:25.662Z,98395.38
2023-03-02T14:15:54.299Z,98388.41
2023-03-02T14:18:39.921Z,98388.22
2023-03-02T14:21:22.204Z,98380.66
2023-03-02T14:23:50.415Z,98377.81
2023-03-02T14:26:40.925Z,98373.34
2023-03-02T14:29:29.308Z,98383.94
2023-03-02T14:32:00.305Z,98382.72
2023-03-02T14:34:27.499Z,98382.34
2023-03-02T14:36:58.603Z,98380.94
2023-03-02T14:39:38.804Z,98380.34
2023-03-02T14:42:11.463Z,98387.28
2023-03-02T14:44:38.642Z,98375.19
2023-03-02T14:47:05.863Z,98379.16
2023-03-02T14:49:33.267Z,98378.63
2023-03-02T14:52:15.326Z,98386.88
2023-03-02T14:54:54.049Z,98371.53
2023-03-02T14:57:27.065Z,98368.81
2023-03-02T14:59:55.868Z,98364.22
2023-03-02T15:02:27.009Z,98361.22
2023-03-02T15:04:57.600Z,98359.22
2023-03-02T15:07:27.364Z,98361.88
2023-03-02T15:09:55.973Z,98359.88
2023-03-02T15:12:23.145Z,98365.78
2023-03-02T15:14:50.414Z,98365.69
2023-03-02T15:17:17.537Z,98365.19
2023-03-02T15:19:44.600Z,98365.00
2023-03-02T15:22:13.310Z,98376.63
2023-03-02T15:24:40.528Z,98361.66
2023-03-02T15:27:07.724Z,98368.53
2023-03-02T15:29:34.899Z,98366.41
2023-03-02T15:32:02.284Z,98368.28
2023-03-02T15:34:29.427Z,98368.84
2023-03-02T15:36:56.678Z,98371.53
2023-03-02T15:39:23.742Z,98369.97
2023-03-02T15:41:50.877Z,98369.75
2023-03-02T15:44:23.046Z,98369.69
2023-03-02T15:46:53.134Z,98374.59
2023-03-02T15:49:23.066Z,98378.13
2023-03-02T15:51:54.752Z,98374.28
2023-03-02T15:54:22.227Z,98368.94
2023-03-02T15:56:53.477Z,98381.25
2023-03-02T15:59:22.009Z,98380.75
2023-03-02T16:01:49.360Z,98382.00
2023-03-02T16:04:16.634Z,98376.00
2023-03-02T16:06:44.551Z,98377.16
2023-03-02T16:09:11.878Z,98384.03
2023-03-02T16:11:39.130Z,98387.31
2023-03-02T16:14:06.247Z,98394.09
2023-03-02T16:16:33.853Z,98389.81
2023-03-02T16:19:01.364Z,98384.34
2023-03-02T16:21:29.212Z,98390.28
2023-03-02T16:24:03.425Z,98398.31
2023-03-02T16:26:33.442Z,98401.72
2023-03-02T16:29:01.190Z,98395.81
2023-03-02T16:31:33.346Z,98396.03
2023-03-02T16:34:03.929Z,98403.94
2023-03-02T16:36:31.155Z,98399.03
2023-03-02T16:38:58.488Z,98395.00
2023-03-02T16:41:26.116Z,98395.09
2023-03-02T16:43:55.604Z,98405.13
2023-03-02T16:46:24.412Z,98402.78
2023-03-02T16:48:51.616Z,98411.00
2023-03-02T16:51:20.097Z,98410.22
2023-03-02T16:53:47.513Z,98407.75
2023-03-02T16:56:15.268Z,98399.16
2023-03-02T16:58:42.927Z,98413.75
2023-03-02T17:01:13.402Z,98411.94
2023-03-02T17:03:40.590Z,98412.44
2023-03-02T17:06:09.541Z,98415.97
2023-03-02T17:08:37.182Z,98422.13
2023-03-02T17:11:04.775Z,98422.22
2023-03-02T17:13:32.277Z,98420.72
2023-03-02T17:15:59.667Z,98419.38
2023-03-02T17:18:27.792Z,98421.84
2023-03-02T17:20:57.190Z,98419.47
2023-03-02T17:23:24.874Z,98417.47
2023-03-02T17:25:52.137Z,98420.34
2023-03-02T17:28:19.660Z,98421.84
2023-03-02T17:30:47.038Z,98424.41
2023-03-02T17:33:14.273Z,98414.16
2023-03-02T17:35:42.652Z,98420.63
2023-03-02T17:38:10.403Z,98422.50
2023-03-02T17:40:37.482Z,98420.16
2023-03-02T17:43:04.620Z,98416.97
2023-03-02T17:45:31.779Z,98409.91
2023-03-02T17:47:59.298Z,98419.69
2023-03-02T17:50:27.992Z,98416.06
2023-03-02T17:52:55.656Z,98426.66
2023-03-02T17:55:22.950Z,98424.63
2023-03-02T17:57:50.090Z,98419.03
2023-03-02T18:00:19.674Z,98426.78
2023-03-02T18:02:46.885Z,98423.63
2023-03-02T18:05:14.123Z,98415.81
2023-03-02T18:07:41.201Z,98413.66
2023-03-02T18:10:08.822Z,98417.59
2023-03-02T18:12:36.394Z,98413.66
2023-03-02T18:15:04.075Z,98421.00
2023-03-02T18:17:31.425Z,98417.03
2023-03-02T18:19:58.594Z,98422.66
2023-03-02T18:22:26.269Z,98418.34
2023-03-02T18:24:53.544Z,98422.59
2023-03-02T18:27:20.843Z,98416.00
2023-03-02T18:29:48.040Z,98419.25
2023-03-02T18:32:15.250Z,98412.53
2023-03-02T18:34:42.613Z,98426.56
2023-03-02T18:37:09.906Z,98426.28
2023-03-02T18:39:38.042Z,98434.47
2023-03-02T18:42:06.317Z,98439.00
2023-03-02T18:44:34.532Z,98432.59
2023-03-02T18:47:02.190Z,98435.34
2023-03-02T18:49:29.953Z,98441.47
2023-03-02T18:51:57.540Z,98440.84
2023-03-02T18:54:24.803Z,98448.94
2023-03-02T18:56:52.036Z,98437.44
2023-03-02T18:59:19.454Z,98442.16
2023-03-02T19:01:47.456Z,98441.84
2023-03-02T19:04:15.106Z,98445.97
2023-03-02T19:06:43.497Z,98442.72
2023-03-02T19:09:11.357Z,98438.81
2023-03-02T19:11:38.561Z,98434.63
2023-03-02T19:14:05.760Z,98437.94
2023-03-02T19:16:33.308Z,98433.38
2023-03-02T19:19:00.601Z,98431.94
2023-03-02T19:21:27.752Z,98440.75
2023-03-02T19:23:55.053Z,98438.53
2023-03-02T19:26:22.119Z,98443.28
2023-03-02T19:28:49.268Z,98440.09
2023-03-02T19:31:16.720Z,98434.16
2023-03-02T19:33:45.423Z,98445.66
2023-03-02T19:36:13.479Z,98433.06
2023-03-02T19:38:44.654Z,98433.88
2023-03-02T19:41:15.402Z,98438.31
2023-03-02T19:43:43.051Z,98434.00
2023-03-02T19:46:12.750Z,98432.91
2023-03-02T19:48:40.637Z,98430.75
2023-03-02T19:51:09.156Z,98431.69
2023-03-02T19:53:38.435Z,98431.41
2023-03-02T19:56:08.464Z,98434.72
2023-03-02T19:58:36.621Z,98427.00
2023-03-02T20:01:04.597Z,98434.25
2023-03-02T20:03:31.842Z,98433.63
2023-03-02T20:05:59.729Z,98430.03
2023-03-02T20:08:27.092Z,98429.78
2023-03-02T20:10:54.348Z,98418.31
2023-03-02T20:13:21.698Z,98423.50
2023-03-02T20:15:49.003Z,98419.41
2023-03-02T20:18:19.237Z,98417.75
2023-03-02T20:20:48.666Z,98416.16
2023-03-02T20:23:17.702Z,98405.75
2023-03-02T20:25:47.198Z,98412.75
2023-03-02T20:28:18.915Z,98400.28
2023-03-02T20:30:55.455Z,98391.13
2023-03-02T20:33:24.900Z,98397.97
2023-03-02T20:35:53.024Z,98391.66
2023-03-02T20:38:29.494Z,98391.75
2023-03-02T20:40:57.260Z,98387.75
2023-03-02T20:43:24.981Z,98387.66
2023-03-02T20:45:52.193Z,98381.94
2023-03-02T20:48:21.512Z,98385.06
2023-03-02T20:50:49.805Z,98385.53
2023-03-02T20:53:16.974Z,98379.41
2023-03-02T20:55:44.224Z,98375.22
2023-03-02T20:58:12.699Z,98377.63
2023-03-02T21:00:40.119Z,98379.41
2023-03-02T21:03:08.105Z,98373.94
2023-03-02T21:05:38.334Z,98379.88
2023-03-02T21:08:05.762Z,98376.03
2023-03-02T21:10:38.053Z,98375.88
2023-03-02T21:13:07.760Z,98369.66
2023-03-02T21:15:36.251Z,98359.84
2023-03-02T21:18:03.583Z,98364.69
2023-03-02T21:20:34.274Z,98371.16
2023-03-02T21:23:02.001Z,98363.84
2023-03-02T21:25:29.118Z,98363.00
2023-03-02T21:27:56.423Z,98355.56
2023-03-02T21:30:27.768Z,98355.94
2023-03-02T21:32:55.522Z,98356.31
2023-03-02T21:35:23.857Z,98354.38
2023-03-02T21:37:54.862Z,98357.44
2023-03-02T21:40:25.936Z,98359.38
2023-03-02T21:42:54.456Z,98347.22
2023-03-02T21:45:23.028Z,98350.94
2023-03-02T21:47:50.596Z,98345.91
2023-03-02T21:50:22.838Z,98341.91
2023-03-02T21:52:50.032Z,98334.63
2023-03-02T21:55:17.295Z,98329.88
2023-03-02T21:57:45.080Z,98327.66
2023-03-02T22:00:27.590Z,98333.88
2023-03-02T22:02:55.273Z,98325.59
2023-03-02T22:05:22.717Z,98319.47
2023-03-02T22:07:50.032Z,98318.09
2023-03-02T22:10:23.259Z,98314.84
2023-03-02T22:13:13.396Z,98311.06
2023-03-02T22:15:40.653Z,98311.69
2023-03-02T22:18:19.524Z,98299.69
2023-03-02T22:20:51.192Z,98306.03
2023-03-02T22:23:21.665Z,98302.78
2023-03-02T22:25:54.084Z,98303.59
2023-03-02T22:28:25.793Z,98299.31
2023-03-02T22:30:57.626Z,98300.19
2023-03-02T22:33:29.554Z,98295.09
2023-03-02T22:36:04.617Z,98297.53
2023-03-02T22:38:32.005Z,98292.91
2023-03-02T22:40:59.248Z,98286.41
2023-03-02T22:43:31.780Z,98285.06
2023-03-02T22:46:11.448Z,98277.47
2023-03-02T22:48:38.796Z,98278.38
2023-03-02T22:51:20.868Z,98272.19
2023-03-02T22:53:56.324Z,98277.19
2023-03-02T22:56:37.329Z,98272.16
2023-03-02T22:59:26.848Z,98273.44
2023-03-02T23:02:13.371Z,98270.19
2023-03-02T23:04:41.559Z,98264.34
2023-03-02T23:07:19.248Z,98269.63
2023-03-02T23:09:47.100Z,98261.59
2023-03-02T23:12:24.210Z,98261.53
2023-03-02T23:14:56.667Z,98259.66
2023-03-02T23:17:37.206Z,98257.13
2023-03-02T23:20:11.153Z,98260.44
2023-03-02T23:22:39.282Z,98260.03
2023-03-02T23:25:07.996Z,98262.03
2023-03-02T23:27:35.459Z,98256.00
2023-03-02T23:30:03.371Z,98257.78
2023-03-02T23:32:30.494Z,98254.63
2023-03-02T23:34:57.612Z,98254.72
2023-03-02T23:37:24.634Z,98249.16
2023-03-02T23:39:52.388Z,98256.31
2023-03-02T23:42:20.269Z,98253.84
2023-03-02T23:44:47.432Z,98243.22
2023-03-02T23:47:14.549Z,98242.50
2023-03-02T23:49:41.568Z,98237.84
2023-03-02T23:52:08.670Z,98243.81
2023-03-02T23:54:35.766Z,98239.13
2023-03-02T23:57:02.874Z,98240.59
2023-03-02T23:59:29.969Z,98241.19
